createdAt,value
2023-02-01T00:00:54.564Z,21.20
2023-02-01T00:01:52.694Z,20.20
2023-02-01T00:02:53.820Z,21.90
2023-02-01T00:03:51.225Z,26.00
2023-02-01T00:04:52.219Z,26.20
2023-02-01T00:05:52.003Z,21.10
2023-02-01T00:06:53.375Z,21.40
2023-02-01T00:07:52.085Z,29.10
2023-02-01T00:08:53.632Z,21.10
2023-02-01T00:09:53.813Z,23.40
2023-02-01T00:10:53.186Z,22.40
2023-02-01T00:11:51.709Z,21.40
2023-02-01T00:12:53.807Z,29.50
2023-02-01T00:13:50.910Z,23.20
2023-02-01T00:14:53.547Z,27.80
2023-02-01T00:15:52.953Z,25.10
2023-02-01T00:16:53.645Z,21.40
2023-02-01T00:17:52.279Z,28.90
2023-02-01T00:18:53.499Z,26.50
2023-02-01T00:19:50.161Z,24.80
2023-02-01T00:20:51.650Z,27.60
2023-02-01T00:21:52.513Z,21.00
2023-02-01T00:22:52.339Z,25.60
2023-02-01T00:23:53.235Z,22.90
2023-02-01T00:24:53.834Z,23.60
2023-02-01T00:25:54.518Z,28.90
2023-02-01T00:26:53.003Z,26.20
2023-02-01T00:27:53.182Z,22.60
2023-02-01T00:28:49.138Z,32.50
2023-02-01T00:29:51.730Z,23.60
2023-02-01T00:30:52.639Z,24.30
2023-02-01T00:31:52.929Z,40.80
2023-02-01T00:32:53.031Z,26.40
2023-02-01T00:33:51.541Z,28.20
2023-02-01T00:34:53.167Z,32.10
2023-02-01T00:35:53.061Z,32.70
2023-02-01T00:36:54.241Z,23.90
2023-02-01T00:37:52.237Z,27.90
2023-02-01T00:38:53.456Z,30.10
2023-02-01T00:39:48.791Z,33.20
2023-02-01T00:40:48.729Z,26.90
2023-02-01T00:41:48.760Z,37.30
2023-02-01T00:42:48.697Z,31.50
2023-02-01T00:43:48.780Z,23.80
2023-02-01T00:44:48.846Z,27.00
2023-02-01T00:45:48.761Z,27.00
2023-02-01T00:46:49.160Z,32.20
2023-02-01T00:47:48.693Z,28.70
2023-02-01T00:48:49.672Z,36.30
2023-02-01T00:49:48.673Z,32.50
2023-02-01T00:50:48.818Z,33.90
2023-02-01T00:51:48.750Z,29.90
2023-02-01T00:52:48.873Z,30.70
2023-02-01T00:53:48.640Z,35.90
2023-02-01T00:54:48.676Z,28.20
2023-02-01T00:55:52.123Z,33.00
2023-02-01T00:56:48.662Z,30.30
2023-02-01T00:57:48.643Z,37.00
2023-02-01T00:58:48.593Z,31.20
2023-02-01T00:59:49.136Z,22.10
2023-02-01T01:00:50.171Z,30.20
2023-02-01T01:01:54.115Z,33.40
2023-02-01T01:02:49.784Z,33.70
2023-02-01T01:03:48.614Z,28.70
2023-02-01T01:04:48.557Z,22.20
2023-02-01T01:05:48.821Z,27.10
2023-02-01T01:06:49.508Z,28.50
2023-02-01T01:07:48.493Z,35.30
2023-02-01T01:08:48.648Z,26.80
2023-02-01T01:09:48.414Z,24.00
2023-02-01T01:10:48.859Z,35.70
2023-02-01T01:11:48.509Z,25.30
2023-02-01T01:12:48.409Z,32.20
2023-02-01T01:13:48.458Z,25.60
2023-02-01T01:14:48.366Z,25.10
2023-02-01T01:15:48.372Z,27.70
2023-02-01T01:16:48.647Z,30.90
2023-02-01T01:17:48.401Z,27.50
2023-02-01T01:18:48.508Z,24.30
2023-02-01T01:19:48.555Z,27.30
2023-02-01T01:20:48.510Z,26.90
2023-02-01T01:21:48.362Z,26.70
2023-02-01T01:22:48.317Z,22.10
2023-02-01T01:23:48.296Z,23.60
2023-02-01T01:24:48.340Z,23.80
2023-02-01T01:25:48.300Z,26.80
2023-02-01T01:26:48.263Z,32.40
2023-02-01T01:27:48.316Z,23.50
2023-02-01T01:28:48.414Z,29.10
2023-02-01T01:29:48.278Z,27.20
2023-02-01T01:30:48.267Z,21.00
2023-02-01T01:31:48.249Z,27.90
2023-02-01T01:32:50.452Z,27.40
2023-02-01T01:33:50.179Z,23.20
2023-02-01T01:34:53.429Z,28.90
2023-02-01T01:35:49.551Z,26.60
2023-02-01T01:36:48.143Z,28.20
2023-02-01T01:37:48.163Z,28.10
2023-02-01T01:38:48.157Z,26.30
2023-02-01T01:39:48.206Z,23.80
2023-02-01T01:40:48.169Z,27.40
2023-02-01T01:41:48.177Z,29.20
2023-02-01T01:42:48.091Z,29.70
2023-02-01T01:43:48.257Z,28.70
2023-02-01T01:44:48.087Z,29.00
2023-02-01T01:45:48.063Z,27.20
2023-02-01T01:46:48.107Z,28.40
2023-02-01T01:47:48.039Z,24.30
2023-02-01T01:48:48.121Z,20.40
2023-02-01T01:49:48.120Z,24.00
2023-02-01T01:50:48.020Z,25.40
2023-02-01T01:51:49.016Z,25.60
2023-02-01T01:52:53.415Z,25.30
2023-02-01T01:53:53.621Z,29.50
2023-02-01T01:54:50.848Z,24.70
2023-02-01T01:55:51.166Z,29.50
2023-02-01T01:56:52.441Z,25.80
2023-02-01T01:57:53.468Z,30.90
2023-02-01T01:58:51.338Z,24.50
2023-02-01T01:59:49.951Z,24.60
2023-02-01T02:00:51.095Z,25.20
2023-02-01T02:01:51.967Z,25.30
2023-02-01T02:02:51.087Z,26.30
2023-02-01T02:03:50.199Z,24.70
2023-02-01T02:04:47.943Z,29.40
2023-02-01T02:05:47.966Z,29.30
2023-02-01T02:06:47.882Z,28.70
2023-02-01T02:07:47.905Z,25.20
2023-02-01T02:08:47.785Z,27.70
2023-02-01T02:09:59.504Z,25.50
2023-02-01T02:10:49.874Z,31.80
2023-02-01T02:11:48.010Z,24.30
2023-02-01T02:12:47.764Z,22.00
2023-02-01T02:13:47.959Z,26.70
2023-02-01T02:14:47.849Z,29.70
2023-02-01T02:15:47.760Z,30.10
2023-02-01T02:16:47.922Z,25.00
2023-02-01T02:17:47.725Z,24.90
2023-02-01T02:18:48.166Z,25.40
2023-02-01T02:19:49.158Z,26.60
2023-02-01T02:20:47.773Z,23.00
2023-02-01T02:21:50.777Z,24.10
2023-02-01T02:22:49.898Z,20.10
2023-02-01T02:23:48.701Z,22.10
2023-02-01T02:24:47.729Z,32.40
2023-02-01T02:25:47.692Z,26.70
2023-02-01T02:26:47.804Z,25.00
2023-02-01T02:27:47.676Z,28.80
2023-02-01T02:28:47.665Z,26.80
2023-02-01T02:29:47.659Z,23.20
2023-02-01T02:30:50.949Z,24.90
2023-02-01T02:31:52.875Z,28.00
2023-02-01T02:32:47.773Z,31.70
2023-02-01T02:33:47.989Z,35.60
2023-02-01T02:34:47.859Z,28.20
2023-02-01T02:35:47.553Z,31.40
2023-02-01T02:36:47.546Z,33.40
2023-02-01T02:37:47.558Z,25.20
2023-02-01T02:38:47.678Z,32.40
2023-02-01T02:39:48.731Z,29.20
2023-02-01T02:40:51.978Z,29.70
2023-02-01T02:41:48.812Z,32.30
2023-02-01T02:42:52.468Z,28.50
2023-02-01T02:43:52.252Z,29.50
2023-02-01T02:44:52.463Z,31.60
2023-02-01T02:45:49.628Z,34.90
2023-02-01T02:46:49.250Z,26.00
2023-02-01T02:47:52.596Z,31.90
2023-02-01T02:48:50.929Z,29.30
2023-02-01T02:49:50.025Z,28.60
2023-02-01T02:50:48.953Z,24.00
2023-02-01T02:51:50.470Z,29.40
2023-02-01T02:52:47.794Z,29.40
2023-02-01T02:53:47.455Z,25.00
2023-02-01T02:54:47.557Z,33.80
2023-02-01T02:55:52.937Z,23.90
2023-02-01T02:56:48.757Z,29.30
2023-02-01T02:57:53.632Z,28.70
2023-02-01T02:58:50.689Z,32.50
2023-02-01T02:59:48.371Z,22.40
2023-02-01T03:00:50.135Z,29.10
2023-02-01T03:01:48.616Z,28.70
2023-02-01T03:02:48.075Z,22.70
2023-02-01T03:03:48.750Z,27.90
2023-02-01T03:04:50.213Z,23.20
2023-02-01T03:05:48.188Z,28.80
2023-02-01T03:06:47.664Z,25.10
2023-02-01T03:07:47.759Z,34.50
2023-02-01T03:08:47.183Z,27.20
2023-02-01T03:09:47.193Z,27.60
2023-02-01T03:10:47.143Z,28.10
2023-02-01T03:11:47.173Z,23.50
2023-02-01T03:12:47.121Z,29.30
2023-02-01T03:13:49.704Z,22.10
2023-02-01T03:14:47.276Z,29.70
2023-02-01T03:15:48.496Z,27.30
2023-02-01T03:16:48.263Z,30.70
2023-02-01T03:17:48.361Z,26.00
2023-02-01T03:18:49.456Z,29.30
2023-02-01T03:19:49.706Z,27.00
2023-02-01T03:20:49.400Z,27.00
2023-02-01T03:21:48.484Z,24.60
2023-02-01T03:22:49.216Z,27.20
2023-02-01T03:23:51.606Z,31.80
2023-02-01T03:24:48.705Z,24.70
2023-02-01T03:25:50.195Z,27.30
2023-02-01T03:26:48.008Z,24.40
2023-02-01T03:27:49.649Z,32.20
2023-02-01T03:28:48.158Z,26.10
2023-02-01T03:29:48.218Z,28.50
2023-02-01T03:30:50.957Z,22.10
2023-02-01T03:31:49.750Z,30.40
2023-02-01T03:32:48.251Z,24.20
2023-02-01T03:33:50.074Z,23.60
2023-02-01T03:34:51.595Z,31.40
2023-02-01T03:35:49.462Z,24.60
2023-02-01T03:36:50.655Z,26.50
2023-02-01T03:37:50.623Z,25.90
2023-02-01T03:39:20.502Z,31.30
2023-02-01T03:40:20.555Z,23.10
2023-02-01T03:41:20.448Z,25.50
2023-02-01T03:41:49.151Z,25.60
2023-02-01T03:42:48.246Z,27.80
2023-02-01T03:44:19.173Z,23.30
2023-02-01T03:45:21.564Z,30.20
2023-02-01T03:45:48.175Z,29.00
2023-02-01T03:47:19.130Z,29.90
2023-02-01T03:47:50.127Z,28.00
2023-02-01T03:49:20.070Z,29.20
2023-02-01T03:50:22.014Z,31.30
2023-02-01T03:51:19.082Z,29.30
2023-02-01T03:52:19.066Z,26.60
2023-02-01T03:53:19.065Z,24.70
2023-02-01T03:54:19.064Z,29.60
2023-02-01T03:55:20.195Z,29.20
2023-02-01T03:56:19.034Z,25.80
2023-02-01T03:56:47.962Z,25.10
2023-02-01T03:57:48.417Z,21.40
2023-02-01T03:58:46.812Z,25.80
2023-02-01T03:59:46.639Z,21.80
2023-02-01T04:00:46.654Z,24.10
2023-02-01T04:01:46.592Z,26.30
2023-02-01T04:02:46.626Z,24.70
2023-02-01T04:03:46.569Z,21.20
2023-02-01T04:04:46.598Z,23.30
2023-02-01T04:05:46.616Z,29.20
2023-02-01T04:06:46.891Z,23.80
2023-02-01T04:07:46.547Z,26.30
2023-02-01T04:08:46.556Z,28.10
2023-02-01T04:09:46.520Z,26.40
2023-02-01T04:10:46.564Z,23.10
2023-02-01T04:11:46.728Z,20.20
2023-02-01T04:12:47.949Z,22.30
2023-02-01T04:13:47.628Z,23.20
2023-02-01T04:14:47.844Z,28.60
2023-02-01T04:15:47.396Z,23.60
2023-02-01T04:16:46.958Z,19.80
2023-02-01T04:17:48.612Z,22.50
2023-02-01T04:18:46.922Z,22.20
2023-02-01T04:19:47.215Z,29.30
2023-02-01T04:20:46.496Z,23.00
2023-02-01T04:21:46.502Z,25.60
2023-02-01T04:22:48.743Z,28.20
2023-02-01T04:23:48.674Z,21.80
2023-02-01T04:24:48.528Z,22.40
2023-02-01T04:25:48.749Z,22.60
2023-02-01T04:26:46.305Z,21.30
2023-02-01T04:27:46.660Z,19.10
2023-02-01T04:28:47.684Z,19.70
2023-02-01T04:29:47.313Z,26.60
2023-02-01T04:30:46.990Z,26.00
2023-02-01T04:31:46.347Z,21.70
2023-02-01T04:32:47.852Z,21.30
2023-02-01T04:33:49.449Z,31.10
2023-02-01T04:34:47.379Z,25.60
2023-02-01T04:35:48.993Z,26.70
2023-02-01T04:36:47.668Z,31.80
2023-02-01T04:37:47.345Z,25.40
2023-02-01T04:38:46.212Z,22.50
2023-02-01T04:39:46.377Z,22.90
2023-02-01T04:40:47.442Z,26.10
2023-02-01T04:41:48.226Z,26.00
2023-02-01T04:42:46.255Z,27.70
2023-02-01T04:43:47.029Z,25.80
2023-02-01T04:44:48.973Z,22.20
2023-02-01T04:45:47.390Z,20.20
2023-02-01T04:46:48.542Z,28.20
2023-02-01T04:47:48.506Z,24.20
2023-02-01T04:48:47.558Z,31.60
2023-02-01T04:49:49.146Z,21.20
2023-02-01T04:50:47.950Z,22.90
2023-02-01T04:51:48.120Z,20.30
2023-02-01T04:52:47.170Z,26.50
2023-02-01T04:53:47.230Z,23.60
2023-02-01T04:54:46.234Z,24.80
2023-02-01T04:55:46.060Z,28.60
2023-02-01T04:56:46.036Z,26.00
2023-02-01T04:57:46.004Z,23.70
2023-02-01T04:58:46.808Z,25.70
2023-02-01T04:59:45.949Z,26.10
2023-02-01T05:00:46.028Z,28.80
2023-02-01T05:01:48.575Z,21.90
2023-02-01T05:02:45.921Z,22.60
2023-02-01T05:03:45.922Z,23.10
2023-02-01T05:04:46.039Z,24.30
2023-02-01T05:05:45.953Z,17.70
2023-02-01T05:06:45.908Z,23.00
2023-02-01T05:07:45.896Z,24.40
2023-02-01T05:08:45.834Z,21.50
2023-02-01T05:09:46.686Z,24.70
2023-02-01T05:10:45.984Z,18.60
2023-02-01T05:11:45.849Z,21.30
2023-02-01T05:12:45.838Z,15.60
2023-02-01T05:13:45.822Z,23.00
2023-02-01T05:14:45.840Z,25.10
2023-02-01T05:15:45.819Z,18.10
2023-02-01T05:16:45.800Z,23.10
2023-02-01T05:17:45.836Z,25.60
2023-02-01T05:18:45.788Z,24.30
2023-02-01T05:19:45.776Z,25.90
2023-02-01T05:20:45.762Z,18.20
2023-02-01T05:21:45.774Z,20.80
2023-02-01T05:22:45.736Z,23.80
2023-02-01T05:23:46.155Z,21.00
2023-02-01T05:24:45.706Z,15.50
2023-02-01T05:25:45.732Z,21.80
2023-02-01T05:26:45.796Z,18.80
2023-02-01T05:27:45.642Z,20.60
2023-02-01T05:28:45.678Z,24.30
2023-02-01T05:29:45.658Z,19.00
2023-02-01T05:30:45.685Z,23.60
2023-02-01T05:31:45.766Z,24.40
2023-02-01T05:32:46.088Z,23.70
2023-02-01T05:33:45.588Z,26.70
2023-02-01T05:34:46.714Z,23.80
2023-02-01T05:35:45.682Z,18.90
2023-02-01T05:36:45.880Z,24.10
2023-02-01T05:37:45.996Z,19.10
2023-02-01T05:38:45.531Z,18.90
2023-02-01T05:39:45.635Z,27.20
2023-02-01T05:40:45.563Z,20.30
2023-02-01T05:41:45.567Z,24.70
2023-02-01T05:42:45.509Z,23.20
2023-02-01T05:43:45.565Z,23.10
2023-02-01T05:44:45.520Z,18.50
2023-02-01T05:45:45.516Z,21.00
2023-02-01T05:46:45.577Z,20.00
2023-02-01T05:47:46.339Z,20.50
2023-02-01T05:48:46.509Z,25.20
2023-02-01T05:49:45.463Z,27.40
2023-02-01T05:50:48.039Z,21.90
2023-02-01T05:51:45.520Z,22.20
2023-02-01T05:52:45.524Z,20.60
2023-02-01T05:53:45.381Z,25.70
2023-02-01T05:54:45.377Z,19.20
2023-02-01T05:55:45.357Z,19.60
2023-02-01T05:56:45.369Z,23.90
2023-02-01T05:57:45.974Z,24.80
2023-02-01T05:58:45.314Z,24.70
2023-02-01T05:59:45.354Z,18.50
2023-02-01T06:00:45.356Z,23.00
2023-02-01T06:01:45.330Z,18.20
2023-02-01T06:02:45.420Z,21.10
2023-02-01T06:03:45.333Z,17.40
2023-02-01T06:04:45.357Z,20.20
2023-02-01T06:05:45.220Z,21.80
2023-02-01T06:06:45.351Z,23.30
2023-02-01T06:07:45.197Z,28.60
2023-02-01T06:08:45.213Z,22.00
2023-02-01T06:09:45.219Z,23.30
2023-02-01T06:10:45.137Z,25.90
2023-02-01T06:11:45.200Z,26.30
2023-02-01T06:12:45.222Z,23.70
2023-02-01T06:13:45.148Z,24.40
2023-02-01T06:14:45.136Z,23.70
2023-02-01T06:15:45.716Z,21.60
2023-02-01T06:16:47.720Z,19.60
2023-02-01T06:17:45.144Z,22.70
2023-02-01T06:18:45.151Z,25.40
2023-02-01T06:19:45.118Z,20.00
2023-02-01T06:20:45.111Z,19.20
2023-02-01T06:21:45.077Z,23.80
2023-02-01T06:22:45.090Z,22.00
2023-02-01T06:23:45.096Z,19.90
2023-02-01T06:24:45.122Z,24.30
2023-02-01T06:25:51.209Z,19.10
2023-02-01T06:26:45.143Z,19.80
2023-02-01T06:27:45.091Z,24.20
2023-02-01T06:28:45.028Z,20.20
2023-02-01T06:29:45.054Z,24.60
2023-02-01T06:30:45.002Z,20.30
2023-02-01T06:31:45.047Z,25.20
2023-02-01T06:32:45.182Z,19.70
2023-02-01T06:33:44.943Z,17.00
2023-02-01T06:34:44.970Z,24.40
2023-02-01T06:35:44.942Z,19.20
2023-02-01T06:36:44.999Z,25.90
2023-02-01T06:37:44.905Z,22.90
2023-02-01T06:38:45.263Z,24.80
2023-02-01T06:39:44.939Z,23.20
2023-02-01T06:40:45.038Z,21.60
2023-02-01T06:41:45.792Z,18.50
2023-02-01T06:42:44.875Z,20.00
2023-02-01T06:43:44.897Z,18.40
2023-02-01T06:44:44.835Z,19.10
2023-02-01T06:45:45.439Z,21.50
2023-02-01T06:46:46.146Z,22.00
2023-02-01T06:47:44.812Z,16.60
2023-02-01T06:48:44.782Z,21.20
2023-02-01T06:49:44.754Z,22.70
2023-02-01T06:50:44.759Z,15.80
2023-02-01T06:51:44.812Z,15.20
2023-02-01T06:52:44.856Z,14.60
2023-02-01T06:53:44.760Z,16.30
2023-02-01T06:54:44.717Z,20.50
2023-02-01T06:55:44.683Z,16.20
2023-02-01T06:56:44.702Z,19.40
2023-02-01T06:57:44.687Z,19.10
2023-02-01T06:58:44.924Z,17.00
2023-02-01T06:59:44.750Z,21.20
2023-02-01T07:00:44.713Z,16.30
2023-02-01T07:01:45.521Z,21.60
2023-02-01T07:02:44.668Z,19.30
2023-02-01T07:03:44.609Z,18.80
2023-02-01T07:04:44.791Z,18.00
2023-02-01T07:05:44.594Z,20.40
2023-02-01T07:06:44.721Z,21.20
2023-02-01T07:07:44.774Z,15.80
2023-02-01T07:08:44.543Z,17.10
2023-02-01T07:09:44.531Z,15.20
2023-02-01T07:10:44.700Z,21.10
2023-02-01T07:11:44.524Z,19.10
2023-02-01T07:12:44.515Z,16.90
2023-02-01T07:13:44.915Z,16.70
2023-02-01T07:14:44.567Z,18.80
2023-02-01T07:15:44.518Z,23.00
2023-02-01T07:16:44.447Z,19.00
2023-02-01T07:17:44.535Z,11.50
2023-02-01T07:18:44.499Z,20.40
2023-02-01T07:19:44.469Z,25.30
2023-02-01T07:20:44.519Z,17.60
2023-02-01T07:21:44.438Z,20.10
2023-02-01T07:22:44.426Z,17.10
2023-02-01T07:23:44.395Z,22.50
2023-02-01T07:24:44.462Z,22.50
2023-02-01T07:25:44.384Z,21.60
2023-02-01T07:26:44.470Z,15.90
2023-02-01T07:27:44.385Z,19.20
2023-02-01T07:28:44.462Z,22.00
2023-02-01T07:29:44.478Z,14.50
2023-02-01T07:30:44.341Z,16.60
2023-02-01T07:31:44.335Z,17.00
2023-02-01T07:32:44.555Z,18.70
2023-02-01T07:33:44.400Z,17.00
2023-02-01T07:34:44.381Z,17.60
2023-02-01T07:35:44.253Z,17.70
2023-02-01T07:36:44.281Z,22.00
2023-02-01T07:37:44.621Z,19.70
2023-02-01T07:38:44.480Z,17.80
2023-02-01T07:39:44.273Z,21.40
2023-02-01T07:40:44.216Z,19.20
2023-02-01T07:41:49.387Z,20.80
2023-02-01T07:42:44.218Z,20.70
2023-02-01T07:43:44.513Z,22.50
2023-02-01T07:44:44.316Z,20.20
2023-02-01T07:45:45.250Z,18.30
2023-02-01T07:46:44.241Z,22.30
2023-02-01T07:47:44.180Z,18.00
2023-02-01T07:48:44.342Z,20.50
2023-02-01T07:49:44.195Z,17.70
2023-02-01T07:50:44.158Z,22.70
2023-02-01T07:51:44.233Z,22.30
2023-02-01T07:52:44.237Z,16.30
2023-02-01T07:53:44.066Z,22.00
2023-02-01T07:54:44.070Z,24.80
2023-02-01T07:55:45.095Z,18.40
2023-02-01T07:56:44.114Z,16.60
2023-02-01T07:57:44.007Z,18.30
2023-02-01T07:58:44.002Z,18.40
2023-02-01T07:59:44.023Z,20.00
2023-02-01T08:00:44.186Z,13.70
2023-02-01T08:01:44.047Z,14.70
2023-02-01T08:02:44.040Z,18.70
2023-02-01T08:03:44.025Z,21.00
2023-02-01T08:04:43.943Z,15.40
2023-02-01T08:05:48.724Z,18.40
2023-02-01T08:06:45.514Z,18.70
2023-02-01T08:07:43.874Z,20.00
2023-02-01T08:08:43.893Z,17.60
2023-02-01T08:09:43.864Z,14.90
2023-02-01T08:10:43.954Z,17.60
2023-02-01T08:11:43.852Z,18.70
2023-02-01T08:12:44.124Z,22.80
2023-02-01T08:13:43.881Z,16.50
2023-02-01T08:14:43.823Z,16.90
2023-02-01T08:15:43.820Z,18.20
2023-02-01T08:16:43.892Z,15.00
2023-02-01T08:17:45.391Z,18.50
2023-02-01T08:18:43.863Z,14.80
2023-02-01T08:19:43.848Z,18.90
2023-02-01T08:20:43.793Z,22.50
2023-02-01T08:21:43.820Z,14.90
2023-02-01T08:22:43.778Z,18.60
2023-02-01T08:23:43.714Z,18.30
2023-02-01T08:24:43.863Z,17.70
2023-02-01T08:25:43.743Z,14.80
2023-02-01T08:26:43.797Z,15.50
2023-02-01T08:27:43.686Z,17.20
2023-02-01T08:28:43.792Z,16.70
2023-02-01T08:29:43.663Z,12.70
2023-02-01T08:30:43.778Z,18.00
2023-02-01T08:31:43.683Z,10.90
2023-02-01T08:32:43.803Z,12.90
2023-02-01T08:33:43.596Z,15.70
2023-02-01T08:34:43.628Z,13.30
2023-02-01T08:35:44.359Z,16.10
2023-02-01T08:36:44.652Z,13.00
2023-02-01T08:37:43.732Z,17.90
2023-02-01T08:38:43.607Z,15.60
2023-02-01T08:39:44.261Z,16.20
2023-02-01T08:40:43.555Z,14.90
2023-02-01T08:41:45.351Z,15.20
2023-02-01T08:42:43.744Z,16.50
2023-02-01T08:43:43.764Z,14.80
2023-02-01T08:44:44.732Z,12.70
2023-02-01T08:45:47.436Z,14.90
2023-02-01T08:46:45.626Z,14.40
2023-02-01T08:47:47.676Z,12.70
2023-02-01T08:48:47.179Z,13.00
2023-02-01T08:49:46.993Z,18.30
2023-02-01T08:50:44.912Z,15.60
2023-02-01T08:51:44.171Z,17.70
2023-02-01T08:52:43.597Z,18.40
2023-02-01T08:53:43.413Z,20.40
2023-02-01T08:54:43.392Z,15.20
2023-02-01T08:55:43.479Z,19.10
2023-02-01T08:56:43.361Z,14.70
2023-02-01T08:57:43.490Z,16.60
2023-02-01T08:58:44.123Z,11.10
2023-02-01T08:59:43.512Z,16.00
2023-02-01T09:00:43.362Z,14.20
2023-02-01T09:01:43.399Z,17.80
2023-02-01T09:02:43.369Z,17.10
2023-02-01T09:03:43.467Z,18.70
2023-02-01T09:04:43.292Z,18.80
2023-02-01T09:05:49.509Z,16.80
2023-02-01T09:06:45.541Z,18.10
2023-02-01T09:07:46.408Z,17.50
2023-02-01T09:08:43.384Z,17.20
2023-02-01T09:09:43.665Z,18.20
2023-02-01T09:10:43.364Z,16.00
2023-02-01T09:11:43.307Z,14.30
2023-02-01T09:12:43.230Z,17.30
2023-02-01T09:13:43.522Z,15.70
2023-02-01T09:14:43.260Z,17.50
2023-02-01T09:15:43.526Z,14.70
2023-02-01T09:16:43.382Z,16.70
2023-02-01T09:17:43.148Z,14.50
2023-02-01T09:18:55.443Z,16.90
2023-02-01T09:19:44.482Z,13.50
2023-02-01T09:20:43.104Z,14.80
2023-02-01T09:21:43.148Z,17.30
2023-02-01T09:22:44.450Z,13.40
2023-02-01T09:23:44.163Z,18.50
2023-02-01T09:24:43.403Z,17.20
2023-02-01T09:25:43.170Z,16.70
2023-02-01T09:26:42.994Z,14.10
2023-02-01T09:27:43.106Z,15.20
2023-02-01T09:28:43.056Z,19.70
2023-02-01T09:29:43.009Z,11.90
2023-02-01T09:30:44.217Z,18.60
2023-02-01T09:31:49.899Z,12.60
2023-02-01T09:32:44.997Z,12.20
2023-02-01T09:33:42.969Z,14.20
2023-02-01T09:34:43.543Z,14.70
2023-02-01T09:35:43.085Z,16.80
2023-02-01T09:36:42.971Z,13.10
2023-02-01T09:37:42.902Z,16.70
2023-02-01T09:38:52.391Z,14.60
2023-02-01T09:39:44.905Z,16.00
2023-02-01T09:40:42.877Z,17.90
2023-02-01T09:41:43.783Z,18.40
2023-02-01T09:42:42.805Z,16.30
2023-02-01T09:43:42.806Z,16.30
2023-02-01T09:44:44.605Z,14.30
2023-02-01T09:45:43.851Z,15.70
2023-02-01T09:46:42.803Z,16.00
2023-02-01T09:47:42.789Z,13.40
2023-02-01T09:48:42.790Z,16.70
2023-02-01T09:49:42.764Z,15.00
2023-02-01T09:50:42.768Z,14.60
2023-02-01T09:51:42.750Z,16.20
2023-02-01T09:52:42.774Z,14.80
2023-02-01T09:53:42.691Z,15.30
2023-02-01T09:54:42.698Z,14.60
2023-02-01T09:55:42.759Z,14.80
2023-02-01T09:56:42.728Z,17.60
2023-02-01T09:57:42.647Z,17.40
2023-02-01T09:58:42.760Z,13.50
2023-02-01T09:59:42.647Z,15.20
2023-02-01T10:00:42.659Z,13.60
2023-02-01T10:01:42.728Z,14.20
2023-02-01T10:02:42.673Z,13.40
2023-02-01T10:03:42.726Z,17.20
2023-02-01T10:04:42.590Z,17.90
2023-02-01T10:05:42.552Z,15.50
2023-02-01T10:06:42.674Z,14.00
2023-02-01T10:07:42.632Z,18.50
2023-02-01T10:08:42.586Z,16.10
2023-02-01T10:09:42.704Z,15.00
2023-02-01T10:10:42.523Z,16.60
2023-02-01T10:11:42.653Z,18.30
2023-02-01T10:12:42.487Z,18.90
2023-02-01T10:13:42.533Z,16.70
2023-02-01T10:14:42.482Z,20.10
2023-02-01T10:15:42.543Z,14.50
2023-02-01T10:16:42.580Z,18.60
2023-02-01T10:17:42.458Z,16.70
2023-02-01T10:18:42.678Z,9.80
2023-02-01T10:19:42.397Z,17.50
2023-02-01T10:20:42.517Z,16.50
2023-02-01T10:21:42.402Z,18.90
2023-02-01T10:23:00.318Z,17.80
2023-02-01T10:23:44.455Z,16.50
2023-02-01T10:24:43.180Z,16.10
2023-02-01T10:25:42.427Z,12.90
2023-02-01T10:26:42.351Z,12.30
2023-02-01T10:27:42.420Z,16.40
2023-02-01T10:28:42.358Z,17.10
2023-02-01T10:29:42.301Z,17.80
2023-02-01T10:30:42.313Z,14.90
2023-02-01T10:31:42.353Z,16.60
2023-02-01T10:32:42.299Z,15.40
2023-02-01T10:33:42.415Z,16.00
2023-02-01T10:34:42.454Z,16.90
2023-02-01T10:35:42.281Z,15.60
2023-02-01T10:36:42.283Z,19.30
2023-02-01T10:37:42.198Z,16.10
2023-02-01T10:38:42.230Z,19.30
2023-02-01T10:39:42.485Z,16.60
2023-02-01T10:40:42.164Z,14.70
2023-02-01T10:41:42.407Z,19.20
2023-02-01T10:42:43.175Z,15.90
2023-02-01T10:43:42.214Z,20.90
2023-02-01T10:44:42.149Z,15.70
2023-02-01T10:45:42.221Z,17.50
2023-02-01T10:46:42.228Z,17.60
2023-02-01T10:47:42.109Z,15.80
2023-02-01T10:48:42.184Z,21.30
2023-02-01T10:49:42.152Z,22.10
2023-02-01T10:50:42.080Z,16.30
2023-02-01T10:51:42.107Z,19.80
2023-02-01T10:52:42.066Z,16.70
2023-02-01T10:53:42.104Z,16.40
2023-02-01T10:54:42.002Z,16.60
2023-02-01T10:55:42.045Z,15.70
2023-02-01T10:56:42.129Z,19.10
2023-02-01T10:57:42.070Z,17.70
2023-02-01T10:58:42.036Z,17.10
2023-02-01T10:59:43.707Z,17.70
2023-02-01T11:00:42.280Z,18.30
2023-02-01T11:01:42.005Z,27.80
2023-02-01T11:02:41.978Z,21.50
2023-02-01T11:03:42.059Z,16.70
2023-02-01T11:04:41.922Z,18.60
2023-02-01T11:05:43.179Z,18.60
2023-02-01T11:06:43.765Z,15.90
2023-02-01T11:07:42.097Z,20.30
2023-02-01T11:08:41.991Z,21.20
2023-02-01T11:09:43.173Z,17.60
2023-02-01T11:10:43.014Z,14.90
2023-02-01T11:11:41.964Z,19.40
2023-02-01T11:12:41.928Z,17.00
2023-02-01T11:13:41.865Z,17.10
2023-02-01T11:14:41.817Z,20.10
2023-02-01T11:15:41.909Z,17.70
2023-02-01T11:16:41.785Z,21.00
2023-02-01T11:17:41.989Z,19.40
2023-02-01T11:18:44.903Z,16.40
2023-02-01T11:19:42.664Z,23.20
2023-02-01T11:20:42.005Z,17.90
2023-02-01T11:21:41.725Z,17.20
2023-02-01T11:22:43.908Z,21.80
2023-02-01T11:23:43.264Z,18.40
2023-02-01T11:24:44.020Z,22.80
2023-02-01T11:25:41.677Z,20.50
2023-02-01T11:26:41.773Z,19.30
2023-02-01T11:27:53.244Z,17.70
2023-02-01T11:28:43.630Z,20.70
2023-02-01T11:29:41.622Z,19.20
2023-02-01T11:30:41.661Z,16.20
2023-02-01T11:31:41.827Z,18.10
2023-02-01T11:32:41.678Z,18.60
2023-02-01T11:33:41.597Z,21.00
2023-02-01T11:34:41.662Z,17.50
2023-02-01T11:35:41.681Z,21.90
2023-02-01T11:36:41.615Z,18.10
2023-02-01T11:37:41.511Z,18.90
2023-02-01T11:38:41.530Z,19.90
2023-02-01T11:40:13.891Z,16.40
2023-02-01T11:41:14.887Z,22.00
2023-02-01T11:42:15.192Z,20.30
2023-02-01T11:43:14.309Z,24.40
2023-02-01T11:44:13.838Z,19.80
2023-02-01T11:45:13.833Z,17.90
2023-02-01T11:46:13.959Z,20.00
2023-02-01T11:47:14.635Z,20.60
2023-02-01T11:48:26.158Z,16.60
2023-02-01T11:49:14.341Z,22.80
2023-02-01T11:50:14.207Z,18.50
2023-02-01T11:51:13.929Z,23.30
2023-02-01T11:52:15.054Z,17.80
2023-02-01T11:52:43.908Z,17.90
2023-02-01T11:53:43.436Z,21.40
2023-02-01T11:54:44.717Z,16.70
2023-02-01T11:55:41.987Z,13.70
2023-02-01T11:56:41.344Z,17.50
2023-02-01T11:57:41.333Z,15.20
2023-02-01T11:58:41.446Z,19.60
2023-02-01T11:59:48.692Z,16.20
2023-02-01T12:00:42.307Z,16.50
2023-02-01T12:01:41.398Z,13.20
2023-02-01T12:02:41.309Z,15.60
2023-02-01T12:03:41.303Z,14.50
2023-02-01T12:04:41.331Z,16.60
2023-02-01T12:05:41.278Z,15.30
2023-02-01T12:06:41.240Z,14.30
2023-02-01T12:07:41.273Z,16.10
2023-02-01T12:08:41.286Z,16.50
2023-02-01T12:09:41.228Z,18.00
2023-02-01T12:10:41.407Z,15.00
2023-02-01T12:11:41.194Z,13.90
2023-02-01T12:12:42.252Z,15.10
2023-02-01T12:13:41.402Z,15.00
2023-02-01T12:14:41.930Z,16.80
2023-02-01T12:15:41.181Z,14.20
2023-02-01T12:16:42.275Z,19.80
2023-02-01T12:17:41.124Z,16.40
2023-02-01T12:18:41.196Z,12.80
2023-02-01T12:19:41.174Z,22.90
2023-02-01T12:20:41.449Z,17.40
2023-02-01T12:21:41.073Z,12.40
2023-02-01T12:22:41.089Z,15.90
2023-02-01T12:23:41.190Z,18.60
2023-02-01T12:24:41.151Z,17.10
2023-02-01T12:25:41.079Z,18.00
2023-02-01T12:26:41.230Z,15.80
2023-02-01T12:27:41.017Z,15.30
2023-02-01T12:28:41.050Z,15.70
2023-02-01T12:29:41.231Z,16.70
2023-02-01T12:30:40.996Z,17.20
2023-02-01T12:31:41.190Z,14.50
2023-02-01T12:32:40.936Z,15.50
2023-02-01T12:33:40.940Z,14.40
2023-02-01T12:34:41.072Z,12.40
2023-02-01T12:35:41.479Z,13.50
2023-02-01T12:36:40.919Z,16.10
2023-02-01T12:37:40.920Z,16.20
2023-02-01T12:38:41.133Z,15.60
2023-02-01T12:39:40.924Z,17.60
2023-02-01T12:40:40.823Z,17.10
2023-02-01T12:41:40.905Z,16.10
2023-02-01T12:42:40.828Z,19.70
2023-02-01T12:43:40.812Z,17.80
2023-02-01T12:44:41.233Z,17.70
2023-02-01T12:45:40.809Z,13.40
2023-02-01T12:46:41.832Z,16.30
2023-02-01T12:47:40.800Z,15.90
2023-02-01T12:48:42.345Z,17.30
2023-02-01T12:49:40.867Z,14.60
2023-02-01T12:50:40.895Z,15.40
2023-02-01T12:51:40.868Z,15.70
2023-02-01T12:52:41.335Z,14.80